createdAt,value
2019-01-30T00:03:46.030Z,80.63
2019-01-30T00:09:08.293Z,80.18
2019-01-30T00:14:28.507Z,79.86
2019-01-30T00:19:49.032Z,79.41
2019-01-30T00:25:10.075Z,79.17
2019-01-30T00:30:31.039Z,79.03
2019-01-30T00:35:53.575Z,79.30
2019-01-30T00:41:14.519Z,78.97
2019-01-30T00:46:35.215Z,78.74
2019-01-30T00:51:56.243Z,79.27
2019-01-30T00:57:16.452Z,78.85
2019-01-30T01:02:37.796Z,78.25
2019-01-30T01:07:58.295Z,78.53
2019-01-30T01:13:19.216Z,79.12
2019-01-30T01:18:39.787Z,80.64
2019-01-30T01:24:00.465Z,81.82
2019-01-30T01:29:20.927Z,82.31
2019-01-30T01:34:41.584Z,82.29
2019-01-30T01:40:02.987Z,81.73
2019-01-30T01:45:23.854Z,80.98
2019-01-30T01:50:44.644Z,81.36
2019-01-30T01:56:05.455Z,80.81
2019-01-30T02:01:26.284Z,81.23
2019-01-30T02:06:46.734Z,80.90
2019-01-30T02:12:07.431Z,81.21
2019-01-30T02:17:27.670Z,81.81
2019-01-30T02:22:48.270Z,81.49
2019-01-30T02:28:09.022Z,80.94
2019-01-30T02:33:29.829Z,81.00
2019-01-30T02:38:50.286Z,80.83
2019-01-30T02:44:11.109Z,80.79
2019-01-30T02:49:31.667Z,80.33
2019-01-30T02:54:52.438Z,80.25
2019-01-30T03:00:18.881Z,80.32
2019-01-30T03:05:39.447Z,80.91
2019-01-30T03:11:00.253Z,80.12
2019-01-30T03:16:20.666Z,80.52
2019-01-30T03:21:40.951Z,81.12
2019-01-30T03:27:01.681Z,81.78
2019-01-30T03:32:23.579Z,82.20
2019-01-30T03:37:44.605Z,81.51
2019-01-30T03:43:05.220Z,80.76
2019-01-30T03:48:26.143Z,81.46
2019-01-30T03:53:46.552Z,81.61
2019-01-30T03:59:08.671Z,81.64
2019-01-30T04:04:29.631Z,81.83
2019-01-30T04:09:50.336Z,81.89
2019-01-30T04:15:11.147Z,82.25
2019-01-30T04:20:31.465Z,82.05
2019-01-30T04:25:52.050Z,82.67
2019-01-30T04:31:12.695Z,82.36
2019-01-30T04:36:33.321Z,82.07
2019-01-30T04:41:54.057Z,81.50
2019-01-30T04:47:14.798Z,81.69
2019-01-30T04:52:35.466Z,81.35
2019-01-30T04:57:58.218Z,81.02
2019-01-30T05:03:18.955Z,81.31
2019-01-30T05:08:39.520Z,81.07
2019-01-30T05:14:01.511Z,81.07
2019-01-30T05:19:22.178Z,80.41
2019-01-30T05:24:43.168Z,80.51
2019-01-30T05:30:08.555Z,80.26
2019-01-30T05:35:29.665Z,80.07
2019-01-30T05:40:53.688Z,79.91
2019-01-30T05:46:14.226Z,79.76
2019-01-30T05:51:34.706Z,79.97
2019-01-30T05:56:56.572Z,79.90
2019-01-30T06:02:17.203Z,80.41
2019-01-30T06:07:38.107Z,79.73
2019-01-30T06:12:58.649Z,79.76
2019-01-30T06:18:19.361Z,79.75
2019-01-30T06:23:40.030Z,79.64
2019-01-30T06:29:00.498Z,79.78
2019-01-30T06:34:21.293Z,79.40
2019-01-30T06:39:42.003Z,79.64
2019-01-30T06:45:03.691Z,79.13
2019-01-30T06:50:24.317Z,78.80
2019-01-30T06:55:44.830Z,78.80
2019-01-30T07:01:06.849Z,78.46
2019-01-30T07:06:27.149Z,78.45
2019-01-30T07:11:47.812Z,78.22
2019-01-30T07:17:09.449Z,78.02
2019-01-30T07:22:30.374Z,77.99
2019-01-30T07:27:51.006Z,77.70
2019-01-30T07:33:11.640Z,76.86
2019-01-30T07:38:32.434Z,76.40
2019-01-30T07:43:52.912Z,76.00
2019-01-30T07:49:13.362Z,74.71
2019-01-30T07:54:33.874Z,74.60
2019-01-30T07:59:54.190Z,73.76
2019-01-30T08:05:16.165Z,73.80
2019-01-30T08:10:36.965Z,73.52
2019-01-30T08:15:57.540Z,73.30
2019-01-30T08:21:18.082Z,73.30
2019-01-30T08:26:39.039Z,73.20
2019-01-30T08:31:59.943Z,72.79
2019-01-30T08:37:20.285Z,72.78
2019-01-30T08:42:22.189Z,72.39
2019-01-30T08:47:24.520Z,72.12
2019-01-30T08:52:26.456Z,71.42
2019-01-30T08:57:28.561Z,71.11
2019-01-30T09:02:30.482Z,70.99
2019-01-30T09:07:43.644Z,70.14
2019-01-30T09:12:36.796Z,69.85
2019-01-30T09:17:38.926Z,69.58
2019-01-30T09:22:41.197Z,68.75
2019-01-30T09:27:43.197Z,68.06
2019-01-30T09:32:45.420Z,68.05
2019-01-30T09:37:47.901Z,66.79
2019-01-30T09:42:49.806Z,65.83
2019-01-30T09:47:53.099Z,67.19
2019-01-30T09:52:55.563Z,66.36
2019-01-30T09:57:58.696Z,65.56
2019-01-30T10:03:00.855Z,64.28
2019-01-30T10:08:04.988Z,64.11
2019-01-30T10:13:08.008Z,64.00
2019-01-30T10:18:12.953Z,63.61
2019-01-30T10:23:15.217Z,63.48
2019-01-30T10:28:17.368Z,63.10
2019-01-30T10:33:20.118Z,62.23
2019-01-30T10:38:22.225Z,61.20
2019-01-30T10:43:43.000Z,61.13
2019-01-30T10:49:03.737Z,60.84
2019-01-30T10:54:24.120Z,60.32
2019-01-30T10:59:44.684Z,60.13
2019-01-30T11:05:05.814Z,59.54
2019-01-30T11:10:26.428Z,58.85
2019-01-30T11:15:46.973Z,59.08
2019-01-30T11:21:07.743Z,58.30
2019-01-30T11:26:30.013Z,57.09
2019-01-30T11:31:50.553Z,56.76
2019-01-30T11:37:11.228Z,56.09
2019-01-30T11:42:32.090Z,54.43
2019-01-30T11:47:52.653Z,53.57
2019-01-30T11:53:13.185Z,53.35
2019-01-30T11:58:34.065Z,54.22
2019-01-30T12:03:54.425Z,53.80
2019-01-30T12:09:15.273Z,53.55
2019-01-30T12:14:36.096Z,53.69
2019-01-30T12:19:56.721Z,52.67
2019-01-30T12:25:17.621Z,51.57
2019-01-30T12:30:38.025Z,51.37
2019-01-30T12:35:58.476Z,49.94
2019-01-30T12:41:18.892Z,49.93
2019-01-30T12:46:39.652Z,51.11
2019-01-30T12:51:59.895Z,53.08
2019-01-30T12:57:20.466Z,53.37
2019-01-30T13:02:41.028Z,52.82
2019-01-30T13:08:01.720Z,53.83
2019-01-30T13:13:22.089Z,54.53
2019-01-30T13:18:42.779Z,56.72
2019-01-30T13:24:03.551Z,57.68
2019-01-30T13:29:24.050Z,58.65
2019-01-30T13:34:48.938Z,57.78
2019-01-30T13:40:11.720Z,59.02
2019-01-30T13:45:32.910Z,58.57
2019-01-30T13:50:54.453Z,59.68
2019-01-30T13:56:15.003Z,59.77
2019-01-30T14:01:36.832Z,60.00
2019-01-30T14:06:57.319Z,59.27
2019-01-30T14:12:17.810Z,59.78
2019-01-30T14:17:38.616Z,58.19
2019-01-30T14:22:59.675Z,57.70
2019-01-30T14:28:20.132Z,57.93
2019-01-30T14:33:40.685Z,57.00
2019-01-30T14:39:01.307Z,56.69
2019-01-30T14:44:21.686Z,56.85
2019-01-30T14:49:42.339Z,57.13
2019-01-30T14:55:03.881Z,58.19
2019-01-30T15:00:26.606Z,56.79
2019-01-30T15:05:47.444Z,53.41
2019-01-30T15:11:09.522Z,55.23
2019-01-30T15:16:30.383Z,57.95
2019-01-30T15:21:50.944Z,59.29
2019-01-30T15:27:11.946Z,59.83
2019-01-30T15:32:32.360Z,61.66
2019-01-30T15:37:53.112Z,62.43
2019-01-30T15:43:13.780Z,63.12
2019-01-30T15:48:34.494Z,63.60
2019-01-30T15:53:55.314Z,63.60
2019-01-30T15:59:15.764Z,64.85
2019-01-30T16:04:36.857Z,65.20
2019-01-30T16:09:57.279Z,65.68
2019-01-30T16:15:22.212Z,65.29
2019-01-30T16:20:42.718Z,64.75
2019-01-30T16:26:03.235Z,65.36
2019-01-30T16:31:23.892Z,65.46
2019-01-30T16:36:44.394Z,64.58
2019-01-30T16:42:05.006Z,64.58
2019-01-30T16:47:25.631Z,64.40
2019-01-30T16:52:46.351Z,64.23
2019-01-30T16:58:08.970Z,64.78
2019-01-30T17:03:29.695Z,64.50
2019-01-30T17:08:50.618Z,65.38
2019-01-30T17:14:12.558Z,66.25
2019-01-30T17:19:33.269Z,66.93
2019-01-30T17:24:53.885Z,67.69
2019-01-30T17:30:24.120Z,68.22
2019-01-30T17:35:47.046Z,67.64
2019-01-30T17:41:07.692Z,67.50
2019-01-30T17:46:28.290Z,65.37
2019-01-30T17:51:48.891Z,65.37
2019-01-30T17:57:10.560Z,64.88
2019-01-30T18:02:32.666Z,65.07
2019-01-30T18:07:53.839Z,66.31
2019-01-30T18:13:14.455Z,66.47
2019-01-30T18:18:35.091Z,66.90
2019-01-30T18:23:55.646Z,64.33
2019-01-30T18:29:16.329Z,63.04
2019-01-30T18:34:37.105Z,62.41
2019-01-30T18:39:57.690Z,62.44
2019-01-30T18:45:20.403Z,62.50
2019-01-30T18:50:41.777Z,62.96
2019-01-30T18:56:02.884Z,63.18
2019-01-30T19:01:23.617Z,62.98
2019-01-30T19:06:51.961Z,62.71
2019-01-30T19:12:08.736Z,62.57
2019-01-30T19:17:29.352Z,62.24
2019-01-30T19:22:49.931Z,62.48
2019-01-30T19:28:11.312Z,62.88
2019-01-30T19:33:32.213Z,62.90
2019-01-30T19:38:54.611Z,63.47
2019-01-30T19:44:15.597Z,63.41
2019-01-30T19:49:36.766Z,64.13
2019-01-30T19:54:57.770Z,64.75
2019-01-30T20:00:21.451Z,65.88
2019-01-30T20:05:42.438Z,66.59
2019-01-30T20:11:03.979Z,66.46
2019-01-30T20:16:25.883Z,66.21
2019-01-30T20:21:47.084Z,65.66
2019-01-30T20:27:08.378Z,65.04
2019-01-30T20:32:29.372Z,65.15
2019-01-30T20:37:50.777Z,64.86
2019-01-30T20:43:12.493Z,64.78
2019-01-30T20:48:45.232Z,65.04
2019-01-30T20:54:37.820Z,64.86
2019-01-30T20:59:59.268Z,65.16
2019-01-30T21:05:20.787Z,64.68
2019-01-30T21:10:41.795Z,64.65
2019-01-30T21:16:03.332Z,64.42
2019-01-30T21:21:24.479Z,64.30
2019-01-30T21:26:45.507Z,64.47
2019-01-30T21:32:06.563Z,64.88
2019-01-30T21:37:27.446Z,64.89
2019-01-30T21:42:48.189Z,65.22
2019-01-30T21:48:09.911Z,65.38
2019-01-30T21:53:30.630Z,65.47
2019-01-30T21:58:51.678Z,65.64
2019-01-30T22:04:12.451Z,65.19
2019-01-30T22:09:32.878Z,65.12
2019-01-30T22:14:53.780Z,65.60
2019-01-30T22:20:19.614Z,65.42
2019-01-30T22:25:40.276Z,65.97
2019-01-30T22:31:01.173Z,66.25
2019-01-30T22:36:21.754Z,66.16
2019-01-30T22:41:43.552Z,66.44
2019-01-30T22:47:04.240Z,66.42
2019-01-30T22:52:25.208Z,67.00
2019-01-30T22:57:45.797Z,66.72
2019-01-30T23:03:07.123Z,65.79
2019-01-30T23:08:37.705Z,66.53
2019-01-30T23:14:08.324Z,66.94
2019-01-30T23:19:34.174Z,66.94
2019-01-30T23:25:34.576Z,67.23
2019-01-30T23:31:17.614Z,67.73
2019-01-30T23:36:48.191Z,68.02
2019-01-30T23:43:05.296Z,68.48
2019-01-30T23:48:39.519Z,68.93
2019-01-30T23:54:25.855Z,68.54
